JBU1738 KFLL-KSYR
Flight info
| Callsign | JBU1738 |
|---|---|
| Flight time | N/A |
| Altitude | 35000 |
| Route | AGERS1 DUCEN Q87 VIYAP Q69 RICCS JST NABOR |
| Aircraft | A320/M-SDE3FGHIRWY/LB1 |
Departure
| Time | N/A |
|---|---|
| Airport | Fort Lauderdale Hollywood International Airport (KFLL) |
Arrival
| Time | 2026-04-27 20:02 |
|---|---|
| Airport | Syracuse Hancock International Airport (KSYR) |
| Time | Latitude | Longitude | Altitude | Speed | Heading |
|---|---|---|---|---|---|
| 2026-04-27 19:06 | 38.36602 | -80.11494 | 35203 ft | 407 kts | 359° |
| 2026-04-27 19:06 | 38.39466 | -80.11286 | 35203 ft | 405 kts | 357° |
| 2026-04-27 19:07 | 38.45239 | -80.10968 | 35200 ft | 405 kts | 357° |
| 2026-04-27 19:07 | 38.50922 | -80.10658 | 35189 ft | 405 kts | 357° |
| 2026-04-27 19:08 | 38.56623 | -80.10346 | 35194 ft | 404 kts | 357° |
| 2026-04-27 19:08 | 38.62370 | -80.10032 | 35195 ft | 405 kts | 357° |
| 2026-04-27 19:09 | 38.68077 | -80.09718 | 35193 ft | 405 kts | 356° |
| 2026-04-27 19:09 | 38.73759 | -80.09402 | 35194 ft | 405 kts | 357° |
| 2026-04-27 19:10 | 38.79479 | -80.09089 | 35192 ft | 403 kts | 357° |
| 2026-04-27 19:10 | 38.85172 | -80.08604 | 35192 ft | 407 kts | 2° |
| 2026-04-27 19:11 | 38.90836 | -80.07035 | 35191 ft | 416 kts | 11° |
| 2026-04-27 19:11 | 38.96555 | -80.04066 | 35186 ft | 424 kts | 20° |
| 2026-04-27 19:12 | 39.01927 | -79.99821 | 35186 ft | 429 kts | 26° |
| 2026-04-27 19:12 | 39.07160 | -79.95225 | 35184 ft | 430 kts | 27° |
| 2026-04-27 19:13 | 39.12377 | -79.90626 | 35181 ft | 429 kts | 27° |
| 2026-04-27 19:13 | 39.17536 | -79.86078 | 35185 ft | 429 kts | 27° |
| 2026-04-27 19:14 | 39.22558 | -79.81651 | 35185 ft | 429 kts | 27° |
| 2026-04-27 19:14 | 39.27546 | -79.77241 | 35189 ft | 429 kts | 27° |
| 2026-04-27 19:15 | 39.32558 | -79.72806 | 35186 ft | 429 kts | 26° |
| 2026-04-27 19:15 | 39.37640 | -79.68301 | 35193 ft | 429 kts | 27° |
| 2026-04-27 19:16 | 39.42619 | -79.63881 | 35200 ft | 429 kts | 26° |
| 2026-04-27 19:16 | 39.47617 | -79.59435 | 35200 ft | 430 kts | 26° |
| 2026-04-27 19:17 | 39.52594 | -79.54997 | 35198 ft | 428 kts | 27° |
| 2026-04-27 19:17 | 39.57633 | -79.50501 | 35203 ft | 427 kts | 27° |
| 2026-04-27 19:18 | 39.62672 | -79.45988 | 35203 ft | 427 kts | 27° |
| 2026-04-27 19:18 | 39.67642 | -79.41537 | 35206 ft | 427 kts | 27° |
| 2026-04-27 19:19 | 39.72603 | -79.37086 | 35205 ft | 427 kts | 27° |
| 2026-04-27 19:19 | 39.77594 | -79.32596 | 35203 ft | 428 kts | 27° |
| 2026-04-27 19:20 | 39.82579 | -79.28104 | 35208 ft | 428 kts | 27° |
| 2026-04-27 19:20 | 39.87595 | -79.23583 | 35210 ft | 429 kts | 27° |
| 2026-04-27 19:21 | 39.92686 | -79.18974 | 35210 ft | 429 kts | 27° |
| 2026-04-27 19:21 | 39.97746 | -79.14391 | 35213 ft | 429 kts | 27° |
| 2026-04-27 19:22 | 40.02777 | -79.09826 | 35218 ft | 428 kts | 27° |
| 2026-04-27 19:22 | 40.07813 | -79.05245 | 35220 ft | 427 kts | 27° |
| 2026-04-27 19:23 | 40.12928 | -79.00588 | 35222 ft | 427 kts | 27° |
| 2026-04-27 19:23 | 40.18054 | -78.95910 | 35222 ft | 428 kts | 27° |
| 2026-04-27 19:24 | 40.23098 | -78.91293 | 35224 ft | 427 kts | 27° |
| 2026-04-27 19:24 | 40.28101 | -78.86710 | 35231 ft | 427 kts | 27° |
| 2026-04-27 19:25 | 40.33062 | -78.82431 | 35243 ft | 422 kts | 22° |
| 2026-04-27 19:25 | 40.38156 | -78.78638 | 35237 ft | 420 kts | 21° |
| 2026-04-27 19:26 | 40.43249 | -78.74882 | 35233 ft | 421 kts | 21° |
| 2026-04-27 19:26 | 40.48387 | -78.71086 | 35228 ft | 420 kts | 21° |
| 2026-04-27 19:27 | 40.53464 | -78.67320 | 35227 ft | 420 kts | 21° |
| 2026-04-27 19:27 | 40.58707 | -78.63427 | 35224 ft | 420 kts | 21° |
| 2026-04-27 19:28 | 40.63928 | -78.59540 | 35225 ft | 419 kts | 21° |
| 2026-04-27 19:28 | 40.69148 | -78.55646 | 35223 ft | 418 kts | 21° |
| 2026-04-27 19:29 | 40.74335 | -78.51771 | 35221 ft | 420 kts | 21° |
| 2026-04-27 19:29 | 40.79556 | -78.47864 | 35223 ft | 420 kts | 21° |
| 2026-04-27 19:30 | 40.84750 | -78.43967 | 35218 ft | 418 kts | 21° |
| 2026-04-27 19:30 | 40.89954 | -78.40058 | 35227 ft | 419 kts | 21° |
| 2026-04-27 19:31 | 40.95166 | -78.36139 | 35232 ft | 418 kts | 21° |
| 2026-04-27 19:31 | 41.00289 | -78.32269 | 35239 ft | 419 kts | 21° |
| 2026-04-27 19:32 | 41.05505 | -78.28332 | 35242 ft | 419 kts | 21° |
| 2026-04-27 19:32 | 41.10710 | -78.24390 | 35241 ft | 420 kts | 21° |
| 2026-04-27 19:33 | 41.15925 | -78.20437 | 35222 ft | 419 kts | 22° |
| 2026-04-27 19:33 | 41.21153 | -78.16466 | 35223 ft | 419 kts | 21° |
| 2026-04-27 19:34 | 41.26263 | -78.12579 | 35225 ft | 419 kts | 22° |
| 2026-04-27 19:34 | 41.31457 | -78.08621 | 35225 ft | 419 kts | 21° |
| 2026-04-27 19:35 | 41.36597 | -78.04691 | 35222 ft | 418 kts | 22° |
| 2026-04-27 19:35 | 41.41687 | -78.00795 | 35222 ft | 420 kts | 21° |
| 2026-04-27 19:36 | 41.46855 | -77.96833 | 35223 ft | 417 kts | 22° |
| 2026-04-27 19:36 | 41.51998 | -77.92879 | 35224 ft | 418 kts | 22° |
| 2026-04-27 19:37 | 41.57151 | -77.88921 | 35071 ft | 418 kts | 21° |
| 2026-04-27 19:37 | 41.59728 | -77.86933 | 34768 ft | 417 kts | 21° |
| 2026-04-27 19:37 | 41.62391 | -77.84875 | 34457 ft | 415 kts | 22° |
| 2026-04-27 19:37 | 41.65006 | -77.82858 | 34150 ft | 411 kts | 22° |
| 2026-04-27 19:38 | 41.67507 | -77.80923 | 33883 ft | 412 kts | 22° |
| 2026-04-27 19:38 | 41.70017 | -77.78985 | 33617 ft | 412 kts | 22° |
| 2026-04-27 19:38 | 41.72504 | -77.77066 | 33356 ft | 413 kts | 22° |
| 2026-04-27 19:38 | 41.75016 | -77.75120 | 33092 ft | 415 kts | 22° |
| 2026-04-27 19:39 | 41.77509 | -77.73185 | 32833 ft | 417 kts | 22° |
| 2026-04-27 19:39 | 41.80024 | -77.71234 | 32575 ft | 418 kts | 22° |
| 2026-04-27 19:39 | 41.82583 | -77.69245 | 32312 ft | 420 kts | 23° |
| 2026-04-27 19:39 | 41.85170 | -77.67239 | 32046 ft | 420 kts | 23° |
| 2026-04-27 19:40 | 41.87708 | -77.65262 | 31736 ft | 424 kts | 23° |
| 2026-04-27 19:40 | 41.90321 | -77.63229 | 31149 ft | 426 kts | 23° |
| 2026-04-27 19:40 | 41.92892 | -77.61225 | 30581 ft | 423 kts | 24° |
| 2026-04-27 19:40 | 41.95504 | -77.59183 | 30019 ft | 419 kts | 24° |
| 2026-04-27 19:41 | 41.98017 | -77.57217 | 29467 ft | 416 kts | 24° |
| 2026-04-27 19:41 | 42.00567 | -77.55219 | 28918 ft | 412 kts | 25° |
| 2026-04-27 19:41 | 42.03037 | -77.53286 | 28371 ft | 409 kts | 24° |
| 2026-04-27 19:41 | 42.05517 | -77.51337 | 27897 ft | 403 kts | 25° |
| 2026-04-27 19:42 | 42.08030 | -77.49369 | 27437 ft | 404 kts | 25° |
| 2026-04-27 19:42 | 42.10446 | -77.47469 | 26984 ft | 401 kts | 25° |
| 2026-04-27 19:42 | 42.12889 | -77.45549 | 26508 ft | 397 kts | 25° |
| 2026-04-27 19:42 | 42.15308 | -77.43648 | 26013 ft | 394 kts | 25° |
| 2026-04-27 19:43 | 42.17688 | -77.41775 | 25513 ft | 391 kts | 25° |
| 2026-04-27 19:43 | 42.20019 | -77.39938 | 25020 ft | 387 kts | 26° |
| 2026-04-27 19:43 | 42.22397 | -77.38063 | 24502 ft | 383 kts | 26° |
| 2026-04-27 19:43 | 42.24689 | -77.36257 | 24007 ft | 380 kts | 26° |
| 2026-04-27 19:44 | 42.26962 | -77.34459 | 23502 ft | 378 kts | 26° |
| 2026-04-27 19:44 | 42.29246 | -77.32656 | 23005 ft | 375 kts | 27° |
| 2026-04-27 19:44 | 42.31511 | -77.30864 | 22522 ft | 371 kts | 27° |
| 2026-04-27 19:44 | 42.33723 | -77.29112 | 22049 ft | 369 kts | 27° |
| 2026-04-27 19:45 | 42.35955 | -77.27344 | 21540 ft | 367 kts | 27° |
| 2026-04-27 19:45 | 42.38166 | -77.25590 | 21060 ft | 365 kts | 27° |
| 2026-04-27 19:45 | 42.40359 | -77.23852 | 20558 ft | 364 kts | 28° |
| 2026-04-27 19:45 | 42.42618 | -77.22057 | 20052 ft | 362 kts | 28° |
| 2026-04-27 19:46 | 42.44845 | -77.20286 | 19554 ft | 361 kts | 28° |
| 2026-04-27 19:46 | 42.47023 | -77.18554 | 19057 ft | 360 kts | 28° |
| 2026-04-27 19:46 | 42.49194 | -77.16824 | 18555 ft | 358 kts | 28° |
| 2026-04-27 19:46 | 42.51344 | -77.15109 | 18070 ft | 356 kts | 28° |
| 2026-04-27 19:47 | 42.53534 | -77.13364 | 17552 ft | 354 kts | 29° |
| 2026-04-27 19:47 | 42.55693 | -77.11639 | 17058 ft | 352 kts | 29° |
| 2026-04-27 19:47 | 42.57794 | -77.09961 | 16585 ft | 350 kts | 29° |
| 2026-04-27 19:47 | 42.59911 | -77.08253 | 16095 ft | 348 kts | 32° |
| 2026-04-27 19:48 | 42.61753 | -77.06191 | 15829 ft | 343 kts | 43° |
| 2026-04-27 19:48 | 42.63428 | -77.03848 | 15271 ft | 345 kts | 45° |
| 2026-04-27 19:48 | 42.65171 | -77.01344 | 14411 ft | 354 kts | 45° |
| 2026-04-27 19:48 | 42.66927 | -76.98856 | 13803 ft | 354 kts | 45° |
| 2026-04-27 19:49 | 42.68682 | -76.96398 | 13314 ft | 351 kts | 45° |
| 2026-04-27 19:49 | 42.70394 | -76.94024 | 12886 ft | 348 kts | 45° |
| 2026-04-27 19:49 | 42.72142 | -76.91614 | 12383 ft | 345 kts | 45° |
| 2026-04-27 19:49 | 42.73851 | -76.89265 | 11873 ft | 344 kts | 45° |
| 2026-04-27 19:50 | 42.75574 | -76.86900 | 11374 ft | 342 kts | 45° |
| 2026-04-27 19:50 | 42.77296 | -76.84538 | 10889 ft | 339 kts | 45° |
| 2026-04-27 19:50 | 42.78937 | -76.82287 | 10570 ft | 332 kts | 45° |
| 2026-04-27 19:50 | 42.80555 | -76.80068 | 10229 ft | 318 kts | 46° |
| 2026-04-27 19:51 | 42.82066 | -76.77992 | 9980 ft | 296 kts | 46° |
| 2026-04-27 19:51 | 42.83503 | -76.76021 | 9550 ft | 283 kts | 46° |
| 2026-04-27 19:51 | 42.84867 | -76.74144 | 9167 ft | 278 kts | 46° |
| 2026-04-27 19:51 | 42.86262 | -76.72223 | 8781 ft | 279 kts | 47° |
| 2026-04-27 19:52 | 42.87646 | -76.70317 | 8411 ft | 279 kts | 46° |
| 2026-04-27 19:52 | 42.89043 | -76.68388 | 8039 ft | 280 kts | 47° |
| 2026-04-27 19:52 | 42.90425 | -76.66483 | 7680 ft | 280 kts | 47° |
| 2026-04-27 19:52 | 42.91803 | -76.64583 | 7313 ft | 281 kts | 47° |
| 2026-04-27 19:53 | 42.94565 | -76.60767 | 6592 ft | 280 kts | 47° |
| 2026-04-27 19:53 | 42.95942 | -76.58864 | 6239 ft | 280 kts | 47° |
| 2026-04-27 19:53 | 42.97333 | -76.56940 | 5873 ft | 280 kts | 47° |
| 2026-04-27 19:54 | 42.98692 | -76.55054 | 5520 ft | 279 kts | 47° |
| 2026-04-27 19:54 | 43.00062 | -76.53159 | 5240 ft | 276 kts | 47° |
| 2026-04-27 19:54 | 43.01399 | -76.51306 | 4989 ft | 271 kts | 47° |
| 2026-04-27 19:54 | 43.02713 | -76.49483 | 4587 ft | 263 kts | 47° |
| 2026-04-27 19:55 | 43.03991 | -76.47712 | 4198 ft | 254 kts | 48° |
| 2026-04-27 19:55 | 43.05170 | -76.45937 | 3851 ft | 242 kts | 53° |
| 2026-04-27 19:55 | 43.06192 | -76.44199 | 3692 ft | 224 kts | 54° |
| 2026-04-27 19:55 | 43.07131 | -76.42584 | 3659 ft | 205 kts | 55° |
| 2026-04-27 19:56 | 43.07963 | -76.41155 | 3700 ft | 182 kts | 55° |
| 2026-04-27 19:56 | 43.08740 | -76.39811 | 3632 ft | 177 kts | 55° |
| 2026-04-27 19:56 | 43.09495 | -76.38496 | 3582 ft | 176 kts | 58° |
| 2026-04-27 19:56 | 43.09981 | -76.37002 | 3486 ft | 167 kts | 81° |
| 2026-04-27 19:57 | 43.10085 | -76.35447 | 3426 ft | 160 kts | 89° |
| 2026-04-27 19:57 | 43.10121 | -76.34118 | 3356 ft | 160 kts | 90° |
| 2026-04-27 19:57 | 43.10156 | -76.32677 | 3261 ft | 160 kts | 90° |
| 2026-04-27 19:57 | 43.10199 | -76.31119 | 3121 ft | 161 kts | 90° |
| 2026-04-27 19:58 | 43.10245 | -76.29605 | 2894 ft | 160 kts | 90° |
| 2026-04-27 19:58 | 43.10286 | -76.28320 | 2694 ft | 159 kts | 89° |
| 2026-04-27 19:58 | 43.10335 | -76.26801 | 2444 ft | 159 kts | 89° |
| 2026-04-27 19:58 | 43.10386 | -76.25297 | 2231 ft | 155 kts | 89° |
| 2026-04-27 19:59 | 43.10436 | -76.23846 | 2012 ft | 146 kts | 88° |
| 2026-04-27 19:59 | 43.10484 | -76.22488 | 1805 ft | 137 kts | 88° |
| 2026-04-27 19:59 | 43.10527 | -76.21195 | 1622 ft | 133 kts | 88° |
| 2026-04-27 19:59 | 43.10572 | -76.19920 | 1483 ft | 134 kts | 87° |
| 2026-04-27 20:00 | 43.10619 | -76.18642 | 1335 ft | 134 kts | 88° |
| 2026-04-27 20:00 | 43.10664 | -76.17361 | 1199 ft | 134 kts | 87° |
| 2026-04-27 20:00 | 43.10704 | -76.16084 | 1009 ft | 135 kts | 87° |
| 2026-04-27 20:00 | 43.10751 | -76.14796 | 805 ft | 134 kts | 86° |
| 2026-04-27 20:01 | 43.10789 | -76.13525 | 605 ft | 135 kts | 86° |
| 2026-04-27 20:01 | 43.10834 | -76.12228 | 449 ft | 135 kts | 86° |
| 2026-04-27 20:01 | 43.10872 | -76.11068 | 424 ft | 100 kts | 88° |
| 2026-04-27 20:01 | 43.10896 | -76.10344 | 417 ft | 54 kts | 89° |
| 2026-04-27 20:02 | 43.10908 | -76.09964 | 413 ft | 23 kts | 87° |
| 2026-04-27 20:02 | 43.10956 | -76.09869 | 412 ft | 12 kts | 320° |
| 2026-04-27 20:02 | 43.11000 | -76.09930 | 413 ft | 2 kts | 313° |
| 2026-04-27 20:02 | 43.11005 | -76.09939 | 413 ft | 4 kts | 314° |
| 2026-04-27 20:03 | 43.11037 | -76.09985 | 414 ft | 8 kts | 314° |
| 2026-04-27 20:03 | 43.11096 | -76.10066 | 415 ft | 13 kts | 315° |
| 2026-04-27 20:03 | 43.11160 | -76.10156 | 416 ft | 13 kts | 314° |
| 2026-04-27 20:03 | 43.11224 | -76.10248 | 418 ft | 12 kts | 314° |
| 2026-04-27 20:04 | 43.11287 | -76.10337 | 419 ft | 12 kts | 313° |
| 2026-04-27 20:04 | 43.11348 | -76.10424 | 420 ft | 12 kts | 315° |
| 2026-04-27 20:04 | 43.11406 | -76.10517 | 421 ft | 12 kts | 291° |
| 2026-04-27 20:04 | 43.11407 | -76.10641 | 422 ft | 13 kts | 266° |
| 2026-04-27 20:05 | 43.11403 | -76.10771 | 423 ft | 13 kts | 269° |
| 2026-04-27 20:05 | 43.11400 | -76.10892 | 423 ft | 12 kts | 268° |
| 2026-04-27 20:05 | 43.11396 | -76.11020 | 424 ft | 9 kts | 265° |
| 2026-04-27 20:05 | 43.11370 | -76.11034 | 424 ft | 5 kts | 179° |
| 2026-04-27 20:06 | 43.11339 | -76.11033 | 424 ft | 2 kts | 178° |
| 2026-04-27 20:06 | 43.11335 | -76.11032 | 424 ft | 0 kts | 177° |